Time;durP1;ratioP1;P1;durP2;ratioP2;P2;SDS_P1;SDS_P2;PMS_P1;PMS_P2;Temp;Humidity;BMP_temperature;BMP_pressure;BME280_temperature;BME280_humidity;BME280_pressure;Samples;Min_cycle;Max_cycle;Signal;HPM_P1;HPM_P2
2024/02/07 00:02:34;;;;;;;4.95;1.67;;;;;;;;;;7442934;19;19939;-81
2024/02/07 00:05:18;;;;;;;3.10;1.50;;;;;;;;;;7436570;19;19918;-81
2024/02/07 00:08:06;;;;;;;3.83;1.73;;;;;;;;;;7431853;19;19917;-82
2024/02/07 00:10:54;;;;;;;8.68;2.08;;;;;;;;;;7430624;19;19955;-82
2024/02/07 00:13:41;;;;;;;7.60;1.85;;;;;;;;;;7431245;19;19915;-82
2024/02/07 00:16:31;;;;;;;4.30;1.73;;;;;;;;;;7427718;19;19926;-82
2024/02/07 00:19:18;;;;;;;6.15;1.92;;;;;;;;;;7431963;19;19926;-82
2024/02/07 00:22:03;;;;;;;6.78;1.70;;;;;;;;;;7430485;19;19922;-82
2024/02/07 00:24:47;;;;;;;3.60;2.08;;;;;;;;;;7431089;19;19919;-82
2024/02/07 00:27:33;;;;;;;3.60;1.73;;;;;;;;;;7432036;19;19911;-82
2024/02/07 00:30:21;;;;;;;6.25;1.85;;;;;;;;;;7429970;19;19947;-82
2024/02/07 00:33:08;;;;;;;2.20;1.63;;;;;;;;;;7431360;19;20300;-82
2024/02/07 00:35:57;;;;;;;5.53;1.98;;;;;;;;;;7428651;19;19959;-82
2024/02/07 00:38:41;;;;;;;3.60;1.55;;;;;;;;;;7427049;19;19974;-82
2024/02/07 00:41:28;;;;;;;3.50;2.08;;;;;;;;;;7429354;19;19923;-82
2024/02/07 00:44:12;;;;;;;5.75;2.00;;;;;;;;;;7431175;19;19918;-82
2024/02/07 00:46:59;;;;;;;3.90;1.45;;;;;;;;;;7429771;19;19915;-82
2024/02/07 00:49:43;;;;;;;3.33;1.48;;;;;;;;;;7432056;19;19922;-82
2024/02/07 00:52:28;;;;;;;4.70;1.80;;;;;;;;;;7430600;19;19947;-82
2024/02/07 00:55:12;;;;;;;5.25;1.80;;;;;;;;;;7443185;19;19915;-83
2024/02/07 00:58:02;;;;;;;2.17;1.50;;;;;;;;;;7440322;19;19921;-83
2024/02/07 01:00:50;;;;;;;7.75;1.63;;;;;;;;;;7443816;19;19939;-83
2024/02/07 01:03:37;;;;;;;3.58;1.38;;;;;;;;;;7424838;19;19911;-82
2024/02/07 01:06:21;;;;;;;6.72;2.30;;;;;;;;;;7409251;19;19923;-82
2024/02/07 01:09:06;;;;;;;3.13;1.70;;;;;;;;;;7409358;19;19921;-82
2024/02/07 01:11:55;;;;;;;3.33;1.55;;;;;;;;;;7410980;19;19919;-82
2024/02/07 01:14:42;;;;;;;4.38;1.88;;;;;;;;;;7409559;19;19915;-82
2024/02/07 01:17:26;;;;;;;4.70;1.95;;;;;;;;;;7407622;19;19950;-82
2024/02/07 01:20:18;;;;;;;2.55;1.52;;;;;;;;;;7411141;19;19926;-82
2024/02/07 01:23:08;;;;;;;3.63;1.50;;;;;;;;;;7408129;19;19930;-82
2024/02/07 01:25:57;;;;;;;4.35;1.83;;;;;;;;;;7411462;19;19914;-83
2024/02/07 01:28:46;;;;;;;2.72;1.52;;;;;;;;;;7410210;19;19934;-82
2024/02/07 01:31:32;;;;;;;3.28;1.33;;;;;;;;;;7410819;19;19922;-82
2024/02/07 01:34:18;;;;;;;7.90;2.70;;;;;;;;;;7409598;19;19918;-82
2024/02/07 01:37:05;;;;;;;3.65;1.63;;;;;;;;;;7408324;19;20325;-82
2024/02/07 01:39:50;;;;;;;3.90;1.67;;;;;;;;;;7420798;19;19910;-82
2024/02/07 01:42:34;;;;;;;3.72;1.75;;;;;;;;;;7430042;19;19910;-82
2024/02/07 01:45:31;;;;;;;2.92;1.45;;;;;;;;;;7427223;19;19933;-82
2024/02/07 01:48:18;;;;;;;4.38;1.98;;;;;;;;;;7429668;19;19918;-82
2024/02/07 01:51:05;;;;;;;4.00;1.73;;;;;;;;;;7429733;19;19914;-82
2024/02/07 01:53:52;;;;;;;4.55;1.77;;;;;;;;;;7430403;19;19926;-82
2024/02/07 01:56:37;;;;;;;6.80;2.40;;;;;;;;;;7427653;19;19970;-82
2024/02/07 01:59:24;;;;;;;3.75;1.73;;;;;;;;;;7429741;19;19998;-82
2024/02/07 02:02:11;;;;;;;2.85;1.70;;;;;;;;;;7429338;19;19918;-83
2024/02/07 02:04:55;;;;;;;2.22;1.60;;;;;;;;;;7428623;19;19915;-83
2024/02/07 02:07:39;;;;;;;5.35;2.00;;;;;;;;;;7427965;19;19919;-82
2024/02/07 02:10:29;;;;;;;4.45;1.77;;;;;;;;;;7431124;19;19922;-82
2024/02/07 02:13:18;;;;;;;5.22;1.67;;;;;;;;;;7429484;19;19918;-82
2024/02/07 02:16:08;;;;;;;2.80;1.83;;;;;;;;;;7428224;19;19915;-82
2024/02/07 02:18:53;;;;;;;6.60;2.00;;;;;;;;;;7425359;19;19927;-82
2024/02/07 02:21:50;;;;;;;3.25;1.75;;;;;;;;;;7428988;19;19987;-81
2024/02/07 02:24:52;;;;;;;5.38;1.83;;;;;;;;;;7430938;19;19977;-82
2024/02/07 02:27:48;;;;;;;4.30;1.55;;;;;;;;;;7426408;19;20231;-82
2024/02/07 02:30:47;;;;;;;5.18;1.83;;;;;;;;;;7427804;19;19914;-82
2024/02/07 02:33:37;;;;;;;2.80;1.20;;;;;;;;;;7430496;19;19918;-82
2024/02/07 02:36:23;;;;;;;5.82;2.08;;;;;;;;;;7427611;19;19941;-82
2024/02/07 02:39:10;;;;;;;5.07;1.67;;;;;;;;;;7427229;19;20247;-82
2024/02/07 02:42:01;;;;;;;5.85;1.50;;;;;;;;;;7427175;19;19942;-83
2024/02/07 02:44:45;;;;;;;3.85;1.73;;;;;;;;;;7429673;19;19925;-83
2024/02/07 02:47:34;;;;;;;3.78;1.60;;;;;;;;;;7425799;19;19925;-83
2024/02/07 02:50:20;;;;;;;4.25;2.00;;;;;;;;;;7429422;19;19922;-82
2024/02/07 02:53:04;;;;;;;5.32;1.67;;;;;;;;;;7435020;19;20005;-83
2024/02/07 02:55:49;;;;;;;3.72;1.48;;;;;;;;;;7445056;19;19941;-84
2024/02/07 02:58:34;;;;;;;2.92;1.80;;;;;;;;;;7440425;19;19914;-83
2024/02/07 03:01:19;;;;;;;3.28;1.80;;;;;;;;;;7436666;19;20253;-82
2024/02/07 03:04:07;;;;;;;2.80;1.65;;;;;;;;;;7421636;19;19918;-82
2024/02/07 03:07:13;;;;;;;4.03;1.90;;;;;;;;;;7421954;19;19933;-82
2024/02/07 03:09:57;;;;;;;6.30;1.98;;;;;;;;;;7434356;19;19994;-82
2024/02/07 03:12:43;;;;;;;5.88;2.17;;;;;;;;;;7435768;19;19929;-83
2024/02/07 03:15:30;;;;;;;3.70;1.80;;;;;;;;;;7435386;19;19951;-83
2024/02/07 03:18:15;;;;;;;4.35;1.98;;;;;;;;;;7438589;19;19919;-83
2024/02/07 03:21:02;;;;;;;4.22;1.52;;;;;;;;;;7433734;19;19918;-82
2024/02/07 03:23:47;;;;;;;3.33;1.58;;;;;;;;;;7435847;19;19918;-82
2024/02/07 03:26:31;;;;;;;3.92;1.80;;;;;;;;;;7433182;19;19922;-82
2024/02/07 03:29:18;;;;;;;3.30;2.20;;;;;;;;;;7436631;19;19915;-83
2024/02/07 03:32:04;;;;;;;6.78;2.00;;;;;;;;;;7440471;19;19914;-83
2024/02/07 03:34:51;;;;;;;6.65;1.60;;;;;;;;;;7442796;19;19947;-81
2024/02/07 03:37:38;;;;;;;4.03;1.85;;;;;;;;;;7440507;19;19922;-81
2024/02/07 03:40:24;;;;;;;3.00;1.38;;;;;;;;;;7441746;19;19919;-81
2024/02/07 03:43:09;;;;;;;3.95;2.00;;;;;;;;;;7430885;19;19953;-83
2024/02/07 03:45:55;;;;;;;2.92;1.65;;;;;;;;;;7435630;19;19943;-83
2024/02/07 03:48:39;;;;;;;4.03;1.77;;;;;;;;;;7430006;19;20348;-83
2024/02/07 03:51:27;;;;;;;6.50;2.05;;;;;;;;;;7424708;19;19974;-83
2024/02/07 03:54:18;;;;;;;4.13;2.53;;;;;;;;;;7421218;19;19933;-83
2024/02/07 03:57:04;;;;;;;5.55;1.90;;;;;;;;;;7419597;19;19922;-81
2024/02/07 03:59:53;;;;;;;6.70;2.35;;;;;;;;;;7422071;19;19919;-81
2024/02/07 04:02:40;;;;;;;4.93;2.10;;;;;;;;;;7423376;19;19918;-80
2024/02/07 04:05:24;;;;;;;4.15;2.08;;;;;;;;;;7421798;19;19914;-82
2024/02/07 04:08:11;;;;;;;4.60;1.65;;;;;;;;;;7422611;19;19922;-83
2024/02/07 04:11:01;;;;;;;5.57;2.05;;;;;;;;;;7424197;19;20407;-83
2024/02/07 05:16:04;;;;;;;3.97;1.75;;;;;;;;;;7423572;19;19923;-84
2024/02/07 05:18:51;;;;;;;5.15;2.25;;;;;;;;;;7420885;19;19906;-85
2024/02/07 05:21:39;;;;;;;4.82;2.20;;;;;;;;;;7422980;19;19922;-85
2024/02/07 05:24:27;;;;;;;6.55;2.20;;;;;;;;;;7417722;19;19911;-85
2024/02/07 05:27:12;;;;;;;6.65;2.08;;;;;;;;;;7419692;19;20001;-85
2024/02/07 05:29:56;;;;;;;6.30;2.17;;;;;;;;;;7421268;19;19913;-85
2024/02/07 05:32:41;;;;;;;4.38;2.20;;;;;;;;;;7423531;19;19921;-85
2024/02/07 05:35:30;;;;;;;8.50;2.50;;;;;;;;;;7422593;19;19925;-85
2024/02/07 05:38:19;;;;;;;4.82;2.45;;;;;;;;;;7421005;19;19914;-85
2024/02/07 05:41:03;;;;;;;6.13;2.70;;;;;;;;;;7422859;19;19989;-85
2024/02/07 05:43:51;;;;;;;5.30;2.20;;;;;;;;;;7426101;19;19924;-85
2024/02/07 05:46:40;;;;;;;3.58;1.75;;;;;;;;;;7425117;19;19951;-85
2024/02/07 05:49:29;;;;;;;6.63;2.33;;;;;;;;;;7424792;19;20363;-85
2024/02/07 05:52:14;;;;;;;4.32;2.40;;;;;;;;;;7424239;19;19919;-85
2024/02/07 05:55:01;;;;;;;3.88;2.03;;;;;;;;;;7423503;19;19938;-85
2024/02/07 05:57:49;;;;;;;3.63;2.05;;;;;;;;;;7420514;19;19970;-85
2024/02/07 06:00:36;;;;;;;3.83;2.20;;;;;;;;;;7420286;19;19975;-85
2024/02/07 06:03:20;;;;;;;4.07;2.28;;;;;;;;;;7423357;19;19923;-85
2024/02/07 06:06:06;;;;;;;6.38;2.45;;;;;;;;;;7423090;19;19914;-85
2024/02/07 06:08:53;;;;;;;6.35;2.40;;;;;;;;;;7421516;19;19915;-85
2024/02/07 06:11:42;;;;;;;4.32;2.40;;;;;;;;;;7421792;19;19914;-85
2024/02/07 06:14:30;;;;;;;4.80;2.28;;;;;;;;;;7421896;19;19973;-85
2024/02/07 06:17:17;;;;;;;3.58;2.17;;;;;;;;;;7422760;19;19958;-85
2024/02/07 06:20:01;;;;;;;3.85;2.28;;;;;;;;;;7423104;19;19911;-85
2024/02/07 06:22:48;;;;;;;3.03;1.80;;;;;;;;;;7426271;19;19919;-85
2024/02/07 06:25:34;;;;;;;3.22;1.80;;;;;;;;;;7424165;19;19922;-85
2024/02/07 06:28:24;;;;;;;5.40;2.03;;;;;;;;;;7421452;19;19915;-85
2024/02/07 06:31:10;;;;;;;4.20;2.20;;;;;;;;;;7424040;19;19918;-85
2024/02/07 06:33:57;;;;;;;5.75;2.40;;;;;;;;;;7421632;19;19930;-85
2024/02/07 06:36:41;;;;;;;3.65;1.73;;;;;;;;;;7416951;19;19929;-85
2024/02/07 06:39:27;;;;;;;4.47;2.50;;;;;;;;;;7417276;19;19914;-85
2024/02/07 06:42:14;;;;;;;4.03;2.20;;;;;;;;;;7419164;19;19921;-85
2024/02/07 06:45:01;;;;;;;3.67;1.85;;;;;;;;;;7418601;19;19918;-85
2024/02/07 06:47:45;;;;;;;4.57;1.98;;;;;;;;;;7417196;19;19935;-85
2024/02/07 06:50:32;;;;;;;5.30;2.40;;;;;;;;;;7414404;19;19918;-85
2024/02/07 06:53:19;;;;;;;7.57;2.13;;;;;;;;;;7417241;19;19919;-85
2024/02/07 06:56:06;;;;;;;3.85;2.70;;;;;;;;;;7418486;19;19930;-85
2024/02/07 06:58:55;;;;;;;3.95;2.20;;;;;;;;;;7425168;19;19911;-85
2024/02/07 07:01:45;;;;;;;5.95;2.40;;;;;;;;;;7424682;19;19915;-86
2024/02/07 07:04:34;;;;;;;7.53;2.28;;;;;;;;;;7423209;19;19950;-86
2024/02/07 07:07:21;;;;;;;5.22;2.28;;;;;;;;;;7419618;19;20281;-84
2024/02/07 07:10:05;;;;;;;5.55;2.42;;;;;;;;;;7423739;19;20395;-83
2024/02/07 07:12:52;;;;;;;4.78;1.85;;;;;;;;;;7426036;19;19918;-83
2024/02/07 07:15:36;;;;;;;3.13;1.85;;;;;;;;;;7426208;19;19929;-83
2024/02/07 07:18:25;;;;;;;4.63;2.67;;;;;;;;;;7426849;19;19914;-83
2024/02/07 07:21:09;;;;;;;4.65;2.70;;;;;;;;;;7429876;19;19911;-83
2024/02/07 07:23:56;;;;;;;4.18;2.28;;;;;;;;;;7429627;19;19914;-84
2024/02/07 07:26:43;;;;;;;4.40;2.15;;;;;;;;;;7428610;19;20307;-86
2024/02/07 07:29:27;;;;;;;6.10;2.50;;;;;;;;;;7429674;19;19957;-86
2024/02/07 07:32:11;;;;;;;6.00;2.55;;;;;;;;;;7430646;19;19915;-86
2024/02/07 07:34:58;;;;;;;4.15;2.10;;;;;;;;;;7428845;19;19914;-86
2024/02/07 07:37:45;;;;;;;5.35;2.20;;;;;;;;;;7424836;19;19925;-86
2024/02/07 07:40:30;;;;;;;4.57;1.50;;;;;;;;;;7424753;19;19922;-86
2024/02/07 07:43:14;;;;;;;5.35;2.00;;;;;;;;;;7428450;19;19919;-86
2024/02/07 07:46:02;;;;;;;4.60;2.30;;;;;;;;;;7428112;19;19911;-86
2024/02/07 07:48:46;;;;;;;5.80;2.20;;;;;;;;;;7428693;19;19915;-86
2024/02/07 07:51:37;;;;;;;5.72;2.03;;;;;;;;;;7434774;19;19947;-86
2024/02/07 07:54:22;;;;;;;7.78;2.28;;;;;;;;;;7434880;19;19918;-86
2024/02/07 07:57:07;;;;;;;3.53;2.08;;;;;;;;;;7432060;19;19950;-85
2024/02/07 07:59:54;;;;;;;4.00;1.70;;;;;;;;;;7431945;19;19914;-86
2024/02/07 08:02:40;;;;;;;5.32;2.17;;;;;;;;;;7433613;19;19915;-86
2024/02/07 08:05:25;;;;;;;5.65;2.35;;;;;;;;;;7433757;19;19923;-86
2024/02/07 08:08:11;;;;;;;3.60;2.05;;;;;;;;;;7434183;19;19923;-86
2024/02/07 08:10:58;;;;;;;2.72;1.50;;;;;;;;;;7433700;19;19922;-86
2024/02/07 08:13:43;;;;;;;3.30;2.00;;;;;;;;;;7433118;19;19914;-86
2024/02/07 08:16:27;;;;;;;8.07;2.28;;;;;;;;;;7426797;19;19915;-86
2024/02/07 08:19:15;;;;;;;2.95;1.83;;;;;;;;;;7428526;19;19920;-85
2024/02/07 08:22:01;;;;;;;5.50;2.92;;;;;;;;;;7432029;19;19926;-86
2024/02/07 08:24:48;;;;;;;5.28;2.28;;;;;;;;;;7433149;19;19925;-86
2024/02/07 08:27:32;;;;;;;3.83;1.95;;;;;;;;;;7431898;19;19929;-86
2024/02/07 08:30:17;;;;;;;5.25;2.20;;;;;;;;;;7431018;19;19986;-86
2024/02/07 08:33:04;;;;;;;6.63;1.80;;;;;;;;;;7426410;19;20517;-84
2024/02/07 08:35:48;;;;;;;4.82;1.85;;;;;;;;;;7422599;19;19930;-86
2024/02/07 08:38:35;;;;;;;7.93;2.15;;;;;;;;;;7431798;19;19925;-84
2024/02/07 08:41:22;;;;;;;5.55;1.80;;;;;;;;;;7433329;19;20230;-84
2024/02/07 08:44:06;;;;;;;5.03;2.40;;;;;;;;;;7437043;19;19921;-84
2024/02/07 08:46:50;;;;;;;4.28;1.95;;;;;;;;;;7435714;19;19922;-83
2024/02/07 08:49:37;;;;;;;4.43;2.40;;;;;;;;;;7434656;19;19929;-84
2024/02/07 08:52:24;;;;;;;5.43;1.98;;;;;;;;;;7437245;19;19910;-84
2024/02/07 08:55:11;;;;;;;5.60;2.08;;;;;;;;;;7431592;19;19911;-85
2024/02/07 08:58:01;;;;;;;3.65;2.00;;;;;;;;;;7427838;19;19919;-84
2024/02/07 09:00:45;;;;;;;8.68;2.45;;;;;;;;;;7433915;19;19945;-84
2024/02/07 09:03:32;;;;;;;8.25;2.63;;;;;;;;;;7435701;19;19926;-84
2024/02/07 09:06:16;;;;;;;5.60;2.47;;;;;;;;;;7438470;19;19911;-85
2024/02/07 09:09:03;;;;;;;5.97;1.98;;;;;;;;;;7443422;19;19914;-84
2024/02/07 09:11:49;;;;;;;4.95;2.13;;;;;;;;;;7443551;19;19939;-84
2024/02/07 09:14:36;;;;;;;6.60;1.75;;;;;;;;;;7443183;19;19929;-84
2024/02/07 09:17:20;;;;;;;8.23;2.60;;;;;;;;;;7439573;19;19903;-84
2024/02/07 09:20:05;;;;;;;5.13;2.15;;;;;;;;;;7436758;19;19919;-84
2024/02/07 09:22:52;;;;;;;3.40;2.33;;;;;;;;;;7430718;19;19959;-84
2024/02/07 09:25:39;;;;;;;5.82;2.72;;;;;;;;;;7426086;19;19923;-84
2024/02/07 09:28:23;;;;;;;6.05;2.47;;;;;;;;;;7426897;19;19911;-84
2024/02/07 09:31:13;;;;;;;5.72;1.95;;;;;;;;;;7437212;19;19917;-84
2024/02/07 09:33:57;;;;;;;5.13;2.38;;;;;;;;;;7439447;19;19954;-83
2024/02/07 09:36:44;;;;;;;5.15;2.63;;;;;;;;;;7438011;19;19926;-84
2024/02/07 09:39:28;;;;;;;6.90;2.92;;;;;;;;;;7438049;19;19915;-84
2024/02/07 09:42:14;;;;;;;5.75;2.50;;;;;;;;;;7425209;19;19925;-79
2024/02/07 09:44:59;;;;;;;4.63;2.30;;;;;;;;;;7411687;19;19943;-79
2024/02/07 09:48:03;;;;;;;7.70;2.88;;;;;;;;;;7430550;19;19911;-80
2024/02/07 09:50:50;;;;;;;5.10;2.45;;;;;;;;;;7433513;19;19929;-81
2024/02/07 09:53:36;;;;;;;4.78;2.03;;;;;;;;;;7434611;19;19918;-81
2024/02/07 09:56:23;;;;;;;6.78;2.75;;;;;;;;;;7389989;19;19922;-81
2024/02/07 09:59:07;;;;;;;6.10;2.30;;;;;;;;;;7434049;19;19934;-81
2024/02/07 10:01:53;;;;;;;4.28;2.38;;;;;;;;;;7434231;19;19915;-80
2024/02/07 10:04:50;;;;;;;6.38;2.22;;;;;;;;;;7436135;19;19943;-80
2024/02/07 10:07:38;;;;;;;7.20;2.53;;;;;;;;;;7434854;19;19922;-80
2024/02/07 10:10:25;;;;;;;6.25;2.47;;;;;;;;;;7434153;19;19919;-81
2024/02/07 10:13:15;;;;;;;4.43;2.58;;;;;;;;;;7433297;19;19922;-81
2024/02/07 10:16:04;;;;;;;5.00;2.53;;;;;;;;;;7427696;19;19922;-81
2024/02/07 10:18:50;;;;;;;7.38;3.10;;;;;;;;;;7435670;19;19923;-81
2024/02/07 10:21:41;;;;;;;4.97;2.78;;;;;;;;;;7433058;19;19926;-81
2024/02/07 10:24:31;;;;;;;8.30;3.22;;;;;;;;;;7434596;19;19918;-81
2024/02/07 10:27:20;;;;;;;4.60;2.50;;;;;;;;;;7429807;19;19910;-81
2024/02/07 10:30:09;;;;;;;7.65;2.08;;;;;;;;;;7433959;19;19938;-81
2024/02/07 10:32:58;;;;;;;4.85;2.50;;;;;;;;;;7432060;19;19915;-80
2024/02/07 10:35:43;;;;;;;8.07;2.67;;;;;;;;;;7432588;19;19907;-81
2024/02/07 10:38:34;;;;;;;7.28;2.30;;;;;;;;;;7429149;19;19918;-80
2024/02/07 10:41:21;;;;;;;3.20;2.05;;;;;;;;;;7430037;19;19922;-81
2024/02/07 10:44:08;;;;;;;6.63;3.30;;;;;;;;;;7432554;19;19914;-80
2024/02/07 10:47:00;;;;;;;6.85;3.05;;;;;;;;;;7429109;19;19923;-81
2024/02/07 10:49:50;;;;;;;4.40;1.90;;;;;;;;;;7429516;19;19915;-80
2024/02/07 10:52:37;;;;;;;5.65;2.20;;;;;;;;;;7430000;19;20025;-80
2024/02/07 10:55:26;;;;;;;4.20;1.83;;;;;;;;;;7429158;19;19922;-80
2024/02/07 10:58:17;;;;;;;4.93;1.92;;;;;;;;;;7427343;19;19918;-80
2024/02/07 11:01:04;;;;;;;6.53;2.35;;;;;;;;;;7429747;19;20329;-81
2024/02/07 11:03:54;;;;;;;2.80;1.85;;;;;;;;;;7432004;19;19942;-81
2024/02/07 11:06:39;;;;;;;3.38;1.70;;;;;;;;;;7430411;19;19941;-81
2024/02/07 11:09:26;;;;;;;4.03;2.17;;;;;;;;;;7431625;19;19918;-81
2024/02/07 11:12:17;;;;;;;4.38;1.75;;;;;;;;;;7432621;19;19926;-81
2024/02/07 11:15:09;;;;;;;7.82;2.47;;;;;;;;;;7432086;19;19984;-81
2024/02/07 11:17:53;;;;;;;7.72;2.60;;;;;;;;;;7429758;19;19914;-81
2024/02/07 11:20:44;;;;;;;5.65;2.30;;;;;;;;;;7433981;19;19930;-81
2024/02/07 11:23:36;;;;;;;3.40;1.73;;;;;;;;;;7438360;19;20279;-81
2024/02/07 11:26:22;;;;;;;3.88;1.90;;;;;;;;;;7437729;19;19925;-81
2024/02/07 11:29:10;;;;;;;5.53;2.15;;;;;;;;;;7434857;19;19910;-81
2024/02/07 11:31:57;;;;;;;6.43;2.10;;;;;;;;;;7436872;19;20354;-82
2024/02/07 11:34:42;;;;;;;5.35;2.35;;;;;;;;;;7439856;19;19951;-82
2024/02/07 11:37:35;;;;;;;5.80;2.25;;;;;;;;;;7433799;19;20338;-82
2024/02/07 11:40:23;;;;;;;4.20;2.15;;;;;;;;;;7437440;19;19941;-82
2024/02/07 11:43:20;;;;;;;5.60;2.25;;;;;;;;;;7436723;19;19910;-82
2024/02/07 11:46:07;;;;;;;3.75;2.30;;;;;;;;;;7437115;19;19919;-82
2024/02/07 11:48:56;;;;;;;5.90;2.28;;;;;;;;;;7437830;19;19951;-82
2024/02/07 11:51:40;;;;;;;4.68;2.00;;;;;;;;;;7437244;19;19943;-82
2024/02/07 11:54:32;;;;;;;5.47;2.47;;;;;;;;;;7438082;19;19928;-82
2024/02/07 11:57:19;;;;;;;3.22;2.03;;;;;;;;;;7436698;19;19922;-82
2024/02/07 12:00:03;;;;;;;3.38;2.20;;;;;;;;;;7437728;19;19958;-82
2024/02/07 12:02:54;;;;;;;4.47;1.90;;;;;;;;;;7436945;19;19926;-81
2024/02/07 12:05:40;;;;;;;;;;;;;;;;;;7440065;19;19915;-82
2024/02/07 12:08:25;;;;;;;3.42;1.83;;;;;;;;;;7436216;19;19923;-82
2024/02/07 12:11:10;;;;;;;3.85;1.90;;;;;;;;;;7435948;19;19925;-81
2024/02/07 12:13:55;;;;;;;4.72;1.80;;;;;;;;;;7432482;19;19942;-81
2024/02/07 12:16:39;;;;;;;3.97;2.00;;;;;;;;;;7434830;19;19915;-81
2024/02/07 12:19:26;;;;;;;4.85;2.47;;;;;;;;;;7435016;19;19919;-81
2024/02/07 12:22:18;;;;;;;6.57;2.25;;;;;;;;;;7431696;19;19910;-81
2024/02/07 12:25:09;;;;;;;6.35;2.20;;;;;;;;;;7432866;19;19919;-81
2024/02/07 12:27:56;;;;;;;5.25;2.20;;;;;;;;;;7430188;19;19922;-81
2024/02/07 12:30:45;;;;;;;4.22;2.20;;;;;;;;;;7433303;19;19923;-81
2024/02/07 12:33:30;;;;;;;4.00;2.00;;;;;;;;;;7432300;19;19926;-81
2024/02/07 12:36:19;;;;;;;4.43;2.40;;;;;;;;;;7436499;19;19915;-81
2024/02/07 12:39:04;;;;;;;3.45;2.00;;;;;;;;;;7435742;19;19926;-81
2024/02/07 12:41:48;;;;;;;3.97;2.30;;;;;;;;;;7435493;19;19910;-81
2024/02/07 12:44:36;;;;;;;4.68;1.75;;;;;;;;;;7437613;19;19921;-81
2024/02/07 12:47:24;;;;;;;4.85;2.13;;;;;;;;;;7435497;19;19944;-81
2024/02/07 12:50:13;;;;;;;6.05;2.45;;;;;;;;;;7435464;19;19922;-81
2024/02/07 12:53:00;;;;;;;5.40;2.33;;;;;;;;;;7436313;19;19907;-81
2024/02/07 12:55:48;;;;;;;4.88;2.15;;;;;;;;;;7437640;19;19906;-81
2024/02/07 12:58:43;;;;;;;4.22;1.90;;;;;;;;;;7436880;19;19930;-81
2024/02/07 13:01:29;;;;;;;4.78;1.98;;;;;;;;;;7436457;19;19918;-81
2024/02/07 13:04:16;;;;;;;5.70;2.30;;;;;;;;;;7442644;19;20284;-81
2024/02/07 13:07:01;;;;;;;4.35;2.38;;;;;;;;;;7436367;19;19915;-80
2024/02/07 13:09:49;;;;;;;4.53;2.08;;;;;;;;;;7436723;19;19922;-80
2024/02/07 13:12:37;;;;;;;4.10;2.35;;;;;;;;;;7436571;19;19922;-80
2024/02/07 13:15:29;;;;;;;5.75;2.28;;;;;;;;;;7435276;19;19918;-81
2024/02/07 13:18:16;;;;;;;3.83;1.73;;;;;;;;;;7434962;19;19907;-81
2024/02/07 13:21:05;;;;;;;3.72;2.13;;;;;;;;;;7434234;19;19926;-81
2024/02/07 13:23:49;;;;;;;4.60;2.05;;;;;;;;;;7435420;19;19948;-80
2024/02/07 13:26:42;;;;;;;6.40;2.33;;;;;;;;;;7434630;19;19919;-80
2024/02/07 13:29:26;;;;;;;5.55;2.60;;;;;;;;;;7435464;19;20651;-80
2024/02/07 13:32:13;;;;;;;3.00;1.98;;;;;;;;;;7437180;19;19927;-80
2024/02/07 13:34:59;;;;;;;4.10;1.85;;;;;;;;;;7438032;19;19914;-80
2024/02/07 13:37:46;;;;;;;5.53;2.58;;;;;;;;;;7440444;19;19954;-80
2024/02/07 13:40:32;;;;;;;3.97;2.35;;;;;;;;;;7442590;19;19922;-81
2024/02/07 13:43:21;;;;;;;4.13;2.22;;;;;;;;;;7441908;19;19933;-81
2024/02/07 13:46:06;;;;;;;4.43;2.00;;;;;;;;;;7437759;19;19924;-81
2024/02/07 13:48:54;;;;;;;2.63;1.70;;;;;;;;;;7438597;19;19923;-81
2024/02/07 13:51:39;;;;;;;3.25;2.08;;;;;;;;;;7435049;19;19961;-81
2024/02/07 13:54:25;;;;;;;4.55;2.17;;;;;;;;;;7435932;19;19944;-81
2024/02/07 13:57:11;;;;;;;4.78;1.95;;;;;;;;;;7432928;19;19939;-81
2024/02/07 13:59:58;;;;;;;5.72;1.80;;;;;;;;;;7436173;19;19946;-81
2024/02/07 14:02:43;;;;;;;5.25;1.83;;;;;;;;;;7432853;19;19915;-81
2024/02/07 14:05:32;;;;;;;3.50;1.63;;;;;;;;;;7434295;19;19950;-81
2024/02/07 14:08:18;;;;;;;4.30;2.08;;;;;;;;;;7434640;19;19922;-81
2024/02/07 14:11:03;;;;;;;6.55;2.30;;;;;;;;;;7432992;19;19918;-81
2024/02/07 14:13:47;;;;;;;6.30;1.98;;;;;;;;;;7433794;19;19915;-81
2024/02/07 14:16:34;;;;;;;3.03;1.70;;;;;;;;;;7435843;19;19918;-81
2024/02/07 14:19:21;;;;;;;3.05;1.80;;;;;;;;;;7433337;19;19919;-81
2024/02/07 14:22:07;;;;;;;4.18;2.13;;;;;;;;;;7433941;19;19919;-81
2024/02/07 14:24:51;;;;;;;5.20;1.92;;;;;;;;;;7434736;19;19962;-81
2024/02/07 14:27:38;;;;;;;3.22;1.50;;;;;;;;;;7431451;19;19929;-80
2024/02/07 14:30:27;;;;;;;2.95;2.03;;;;;;;;;;7433145;19;19926;-80
2024/02/07 14:33:14;;;;;;;2.78;1.90;;;;;;;;;;7433918;19;19926;-80
2024/02/07 14:36:02;;;;;;;4.15;1.83;;;;;;;;;;7432018;19;19946;-80
2024/02/07 14:38:49;;;;;;;4.03;2.08;;;;;;;;;;7432880;19;19918;-80
2024/02/07 14:41:33;;;;;;;3.90;1.55;;;;;;;;;;7432067;19;19930;-80
2024/02/07 14:44:23;;;;;;;3.92;1.85;;;;;;;;;;7433708;19;19928;-80
2024/02/07 14:47:14;;;;;;;3.13;1.77;;;;;;;;;;7431433;19;20262;-80
2024/02/07 14:50:03;;;;;;;2.78;1.63;;;;;;;;;;7433703;19;20008;-80
2024/02/07 14:52:50;;;;;;;2.70;1.60;;;;;;;;;;7434868;19;19914;-81
2024/02/07 14:55:41;;;;;;;3.45;1.50;;;;;;;;;;7433565;19;19910;-81
2024/02/07 14:58:28;;;;;;;8.23;2.10;;;;;;;;;;7439690;19;20033;-81
2024/02/07 15:01:13;;;;;;;4.25;1.98;;;;;;;;;;7438677;19;19922;-81
2024/02/07 15:03:57;;;;;;;3.38;1.65;;;;;;;;;;7446553;19;19915;-80
2024/02/07 15:06:47;;;;;;;3.33;1.67;;;;;;;;;;7444164;19;19923;-80
2024/02/07 15:09:31;;;;;;;2.03;1.42;;;;;;;;;;7446063;19;20149;-80
2024/02/07 15:12:18;;;;;;;3.17;1.60;;;;;;;;;;7442987;19;19911;-81
2024/02/07 15:15:08;;;;;;;4.78;2.17;;;;;;;;;;7436333;19;19923;-81
2024/02/07 15:17:55;;;;;;;2.35;1.70;;;;;;;;;;7431984;19;19914;-80
2024/02/07 15:20:40;;;;;;;6.50;1.85;;;;;;;;;;7436727;19;19914;-80
2024/02/07 15:23:29;;;;;;;4.40;1.80;;;;;;;;;;7436983;19;19934;-80
2024/02/07 15:26:16;;;;;;;6.50;1.80;;;;;;;;;;7437422;19;19921;-80
2024/02/07 15:29:00;;;;;;;5.75;1.70;;;;;;;;;;7436404;19;19914;-80
2024/02/07 15:31:46;;;;;;;3.45;1.88;;;;;;;;;;7436157;19;19911;-80
2024/02/07 15:34:33;;;;;;;3.63;1.60;;;;;;;;;;7439954;19;19953;-80
2024/02/07 15:37:20;;;;;;;4.25;2.15;;;;;;;;;;7433535;19;19942;-80
2024/02/07 15:40:11;;;;;;;4.22;1.88;;;;;;;;;;7439328;19;19919;-81
2024/02/07 15:42:56;;;;;;;4.20;1.88;;;;;;;;;;7405482;19;19984;-81
2024/02/07 15:45:45;;;;;;;5.85;2.40;;;;;;;;;;7419792;19;19914;-80
2024/02/07 15:48:29;;;;;;;4.57;1.90;;;;;;;;;;7421142;19;19910;-82
2024/02/07 15:51:16;;;;;;;5.63;2.00;;;;;;;;;;7418949;19;20539;-81
2024/02/07 15:54:02;;;;;;;3.40;1.80;;;;;;;;;;7420580;19;19918;-81
2024/02/07 15:57:02;;;;;;;4.25;2.25;;;;;;;;;;7418338;19;21307;-81
2024/02/07 15:59:51;;;;;;;3.42;1.83;;;;;;;;;;7419376;19;19914;-81
2024/02/07 16:02:35;;;;;;;5.03;2.25;;;;;;;;;;7416080;19;19959;-81
2024/02/07 16:05:29;;;;;;;3.47;1.67;;;;;;;;;;7419170;19;19922;-82
2024/02/07 16:08:16;;;;;;;4.15;2.08;;;;;;;;;;7414249;19;19914;-81
2024/02/07 16:11:03;;;;;;;4.38;2.13;;;;;;;;;;7418851;19;19959;-81
2024/02/07 16:13:55;;;;;;;4.25;2.13;;;;;;;;;;7418379;19;19914;-81
2024/02/07 16:16:42;;;;;;;4.28;2.05;;;;;;;;;;7417415;19;20006;-81
2024/02/07 16:19:26;;;;;;;5.20;2.55;;;;;;;;;;7419505;19;20283;-81
2024/02/07 16:22:11;;;;;;;2.63;1.77;;;;;;;;;;7417728;19;19922;-81
2024/02/07 16:24:57;;;;;;;5.30;2.72;;;;;;;;;;7418388;19;19923;-81
2024/02/07 16:27:41;;;;;;;4.53;2.22;;;;;;;;;;7419841;19;20352;-81
2024/02/07 16:30:29;;;;;;;10.55;3.72;;;;;;;;;;7421533;19;19914;-81
2024/02/07 16:33:16;;;;;;;5.10;2.55;;;;;;;;;;7421085;19;20289;-81
2024/02/07 16:36:06;;;;;;;3.25;2.10;;;;;;;;;;7420111;19;19956;-80
2024/02/07 16:38:52;;;;;;;4.82;2.45;;;;;;;;;;7418614;19;20312;-81
2024/02/07 16:41:39;;;;;;;8.25;2.33;;;;;;;;;;7409973;19;20571;-81
2024/02/07 16:44:23;;;;;;;6.45;2.47;;;;;;;;;;7412792;19;19911;-81
2024/02/07 16:47:10;;;;;;;5.15;2.72;;;;;;;;;;7416038;19;19907;-82
2024/02/07 16:50:01;;;;;;;4.78;2.70;;;;;;;;;;7417748;19;19922;-82
2024/02/07 16:52:46;;;;;;;5.90;2.92;;;;;;;;;;7422337;19;19929;-82
2024/02/07 16:55:30;;;;;;;6.35;2.78;;;;;;;;;;7420903;19;19910;-83
2024/02/07 16:58:14;;;;;;;5.80;2.75;;;;;;;;;;7422771;19;19917;-83
2024/02/07 17:00:59;;;;;;;8.02;3.10;;;;;;;;;;7424107;19;19922;-82
2024/02/07 17:03:46;;;;;;;4.15;2.53;;;;;;;;;;7419600;19;19978;-83
2024/02/07 17:06:32;;;;;;;4.32;2.70;;;;;;;;;;7421740;19;19914;-83
2024/02/07 17:09:17;;;;;;;5.25;2.53;;;;;;;;;;7420531;19;19930;-83
2024/02/07 17:12:01;;;;;;;3.55;2.75;;;;;;;;;;7419122;19;20341;-83
2024/02/07 17:14:46;;;;;;;7.55;3.40;;;;;;;;;;7418452;19;19925;-82
2024/02/07 17:17:32;;;;;;;3.50;2.58;;;;;;;;;;7418976;19;19914;-82
2024/02/07 17:20:20;;;;;;;5.25;2.72;;;;;;;;;;7419035;19;19922;-82
2024/02/07 17:23:08;;;;;;;5.15;2.67;;;;;;;;;;7419877;19;20285;-82
2024/02/07 17:25:54;;;;;;;6.10;3.30;;;;;;;;;;7423871;19;19933;-83
2024/02/07 17:28:41;;;;;;;9.25;3.03;;;;;;;;;;7422183;19;20531;-83
2024/02/07 17:31:27;;;;;;;6.50;3.08;;;;;;;;;;7421671;19;20301;-82
2024/02/07 17:34:14;;;;;;;4.95;2.80;;;;;;;;;;7421481;19;19922;-82
2024/02/07 17:37:01;;;;;;;8.57;3.45;;;;;;;;;;7419326;19;19918;-82
2024/02/07 17:39:45;;;;;;;6.88;2.70;;;;;;;;;;7420896;19;19928;-82
2024/02/07 17:42:29;;;;;;;5.85;3.22;;;;;;;;;;7419893;19;20307;-83
2024/02/07 17:45:20;;;;;;;5.30;3.47;;;;;;;;;;7419624;19;19919;-81